Terminal Aerodrome Forecast
Issued by NWS Columbia, SC

Home | Current Version | Previous Version | Text Only | Print | Product List | Glossary On
Versions: 1 2 3 4 5 6 7 8 9 10 11 12 13 14 15 16 17 18 19 20 21 22 23 24 25 26 27 28 29 30
000
FTUS42 KCAE 230200 AAA
TAFCAE
TAF AMD
KCAE 230248Z 2303/2324 05005KT 4SM -DZ BR OVC005
      TEMPO 2303/2306 2SM BR
     FM230600 05005KT 2SM -DZ BR OVC004
     FM231800 07005KT 2SM RA BR OVC007=

USA.gov is the U.S. government's official web portal to all federal, state and local government web resources and services.